createdAt,value
2019-02-09T00:00:03.108Z,66.70
2019-02-09T00:01:03.126Z,66.90
2019-02-09T00:02:03.085Z,66.70
2019-02-09T00:03:03.103Z,66.80
2019-02-09T00:04:03.071Z,66.90
2019-02-09T00:05:03.056Z,66.80
2019-02-09T00:06:03.079Z,67.41
2019-02-09T00:07:03.040Z,67.52
2019-02-09T00:08:03.037Z,67.52
2019-02-09T00:09:03.028Z,68.75
2019-02-09T00:10:03.005Z,69.06
2019-02-09T00:11:03.005Z,69.67
2019-02-09T00:12:02.978Z,70.12
2019-02-09T00:13:02.982Z,70.63
2019-02-09T00:14:02.960Z,71.14
2019-02-09T00:15:02.961Z,72.06
2019-02-09T00:16:02.929Z,72.06
2019-02-09T00:17:02.936Z,72.48
2019-02-09T00:18:02.962Z,72.38
2019-02-09T00:19:03.770Z,72.72
2019-02-09T00:20:02.891Z,72.82
2019-02-09T00:21:02.884Z,74.05
2019-02-09T00:22:02.874Z,73.54
2019-02-09T00:23:02.882Z,73.64
2019-02-09T00:24:02.891Z,73.54
2019-02-09T00:25:02.837Z,74.50
2019-02-09T00:26:02.894Z,73.98
2019-02-09T00:27:02.828Z,74.87
2019-02-09T00:28:03.455Z,74.40
2019-02-09T00:29:02.792Z,73.98
2019-02-09T00:30:02.783Z,74.40
2019-02-09T00:31:02.775Z,75.12
2019-02-09T00:32:02.769Z,74.50
2019-02-09T00:33:02.782Z,74.80
2019-02-09T00:34:02.744Z,75.73
2019-02-09T00:35:02.741Z,75.42
2019-02-09T00:36:02.742Z,75.87
2019-02-09T00:37:02.709Z,75.67
2019-02-09T00:38:02.774Z,76.28
2019-02-09T00:39:02.685Z,75.97
2019-02-09T00:40:02.669Z,77.00
2019-02-09T00:41:02.659Z,76.65
2019-02-09T00:42:02.679Z,77.00
2019-02-09T00:43:02.672Z,77.10
2019-02-09T00:44:02.633Z,76.79
2019-02-09T00:45:02.628Z,76.90
2019-02-09T00:46:02.620Z,77.31
2019-02-09T00:47:02.609Z,77.10
2019-02-09T00:48:02.603Z,77.20
2019-02-09T00:49:02.630Z,76.69
2019-02-09T00:50:02.565Z,77.10
2019-02-09T00:51:02.551Z,77.31
2019-02-09T00:52:02.573Z,76.48
2019-02-09T00:53:02.555Z,76.79
2019-02-09T00:54:02.525Z,76.90
2019-02-09T00:55:02.509Z,76.90
2019-02-09T00:56:02.498Z,76.90
2019-02-09T00:57:02.489Z,76.79
2019-02-09T00:58:02.497Z,77.00
2019-02-09T00:59:02.464Z,77.31
2019-02-09T01:00:02.458Z,77.41
2019-02-09T01:01:02.468Z,76.73
2019-02-09T01:02:02.459Z,77.45
2019-02-09T01:03:02.444Z,77.24
2019-02-09T01:04:02.418Z,77.03
2019-02-09T01:05:02.397Z,77.14
2019-02-09T01:06:02.481Z,77.55
2019-02-09T01:07:02.384Z,77.55
2019-02-09T01:08:02.396Z,77.45
2019-02-09T01:09:02.353Z,77.75
2019-02-09T01:10:02.349Z,77.79
2019-02-09T01:11:02.334Z,77.48
2019-02-09T01:12:02.331Z,78.10
2019-02-09T01:13:02.330Z,79.13
2019-02-09T01:14:02.304Z,79.03
2019-02-09T01:15:02.290Z,79.85
2019-02-09T01:16:02.286Z,79.33
2019-02-09T01:17:02.277Z,80.05
2019-02-09T01:18:02.313Z,80.36
2019-02-09T01:19:02.253Z,80.05
2019-02-09T01:20:02.404Z,80.05
2019-02-09T01:21:02.247Z,79.85
2019-02-09T01:22:02.217Z,80.09
2019-02-09T01:23:02.204Z,79.64
2019-02-09T01:24:02.234Z,78.61
2019-02-09T01:25:02.206Z,79.03
2019-02-09T01:26:02.174Z,78.82
2019-02-09T01:27:02.168Z,78.72
2019-02-09T01:28:04.946Z,78.72
2019-02-09T01:29:02.157Z,78.72
2019-02-09T01:30:02.976Z,78.51
2019-02-09T01:31:02.116Z,78.41
2019-02-09T01:32:02.109Z,78.00
2019-02-09T01:33:02.091Z,77.58
2019-02-09T01:34:02.110Z,77.69
2019-02-09T01:35:02.083Z,77.69
2019-02-09T01:36:02.062Z,77.48
2019-02-09T01:37:02.054Z,77.38
2019-02-09T01:38:02.046Z,77.07
2019-02-09T01:39:02.056Z,77.58
2019-02-09T01:40:02.020Z,77.07
2019-02-09T01:41:02.010Z,77.28
2019-02-09T01:42:01.994Z,77.48
2019-02-09T01:43:01.985Z,77.38
2019-02-09T01:44:01.999Z,77.79
2019-02-09T01:45:01.958Z,77.69
2019-02-09T01:46:01.955Z,77.38
2019-02-09T01:47:01.946Z,77.38
2019-02-09T01:48:01.929Z,77.38
2019-02-09T01:49:01.918Z,76.86
2019-02-09T01:50:01.943Z,77.38
2019-02-09T01:51:01.906Z,77.17
2019-02-09T01:52:01.888Z,77.17
2019-02-09T01:53:01.882Z,77.28
2019-02-09T01:54:01.868Z,77.17
2019-02-09T01:55:01.886Z,77.69
2019-02-09T01:56:01.841Z,77.07
2019-02-09T01:57:01.833Z,77.69
2019-02-09T01:58:01.826Z,77.89
2019-02-09T01:59:01.810Z,78.10
2019-02-09T02:00:01.821Z,78.00
2019-02-09T02:01:09.337Z,78.30
2019-02-09T02:02:09.313Z,78.20
2019-02-09T02:03:01.767Z,78.41
2019-02-09T02:04:01.753Z,78.92
2019-02-09T02:05:01.760Z,78.10
2019-02-09T02:06:01.734Z,78.41
2019-02-09T02:07:01.722Z,78.30
2019-02-09T02:08:01.717Z,78.10
2019-02-09T02:09:01.709Z,78.10
2019-02-09T02:10:01.709Z,78.51
2019-02-09T02:11:01.685Z,78.30
2019-02-09T02:12:01.680Z,78.41
2019-02-09T02:13:01.663Z,79.13
2019-02-09T02:14:01.654Z,78.20
2019-02-09T02:15:01.663Z,78.30
2019-02-09T02:16:01.627Z,78.89
2019-02-09T02:17:01.618Z,79.23
2019-02-09T02:18:01.611Z,78.92
2019-02-09T02:19:01.597Z,79.03
2019-02-09T02:20:01.604Z,78.82
2019-02-09T02:21:01.575Z,78.30
2019-02-09T02:22:01.564Z,78.99
2019-02-09T02:23:01.550Z,78.72
2019-02-09T02:24:09.087Z,79.33
2019-02-09T02:25:01.549Z,79.50
2019-02-09T02:26:01.517Z,79.64
2019-02-09T02:27:01.508Z,79.33
2019-02-09T02:28:01.502Z,79.33
2019-02-09T02:29:01.486Z,79.09
2019-02-09T02:30:01.496Z,79.44
2019-02-09T02:31:01.537Z,79.54
2019-02-09T02:32:01.452Z,79.54
2019-02-09T02:33:01.444Z,79.61
2019-02-09T02:34:01.478Z,79.81
2019-02-09T02:35:01.425Z,79.30
2019-02-09T02:36:01.426Z,80.33
2019-02-09T02:37:01.397Z,80.63
2019-02-09T02:38:01.387Z,81.76
2019-02-09T02:39:01.385Z,81.67
2019-02-09T02:40:01.426Z,81.67
2019-02-09T02:41:01.375Z,82.28
2019-02-09T02:42:01.339Z,83.41
2019-02-09T02:43:01.332Z,83.62
2019-02-09T02:44:01.325Z,84.27
2019-02-09T02:45:01.312Z,83.86
2019-02-09T02:46:01.318Z,83.65
2019-02-09T02:47:01.292Z,83.00
2019-02-09T02:48:01.290Z,83.25
2019-02-09T02:49:01.272Z,83.00
2019-02-09T02:50:01.263Z,83.65
2019-02-09T02:51:01.269Z,83.62
2019-02-09T02:52:01.233Z,83.86
2019-02-09T02:53:01.224Z,83.45
2019-02-09T02:54:01.220Z,83.11
2019-02-09T02:55:01.207Z,83.04
2019-02-09T02:56:01.213Z,82.59
2019-02-09T02:57:01.180Z,82.90
2019-02-09T02:58:01.176Z,83.00
2019-02-09T02:59:01.169Z,83.00
2019-02-09T03:00:01.154Z,82.90
2019-02-09T03:01:01.179Z,83.20
2019-02-09T03:02:01.130Z,82.90
2019-02-09T03:03:01.118Z,82.79
2019-02-09T03:04:01.106Z,83.31
2019-02-09T03:05:01.094Z,83.31
2019-02-09T03:06:01.087Z,83.20
2019-02-09T03:07:01.185Z,83.31
2019-02-09T03:08:01.070Z,83.31
2019-02-09T03:09:01.048Z,83.41
2019-02-09T03:10:01.053Z,83.62
2019-02-09T03:11:01.030Z,82.79
2019-02-09T03:12:01.046Z,83.72
2019-02-09T03:13:01.015Z,83.51
2019-02-09T03:14:01.000Z,83.72
2019-02-09T03:15:00.991Z,83.62
2019-02-09T03:16:00.978Z,83.11
2019-02-09T03:17:00.984Z,83.11
2019-02-09T03:18:00.961Z,83.41
2019-02-09T03:19:01.016Z,83.20
2019-02-09T03:20:00.943Z,81.83
2019-02-09T03:21:00.919Z,81.62
2019-02-09T03:22:00.941Z,81.93
2019-02-09T03:23:00.899Z,80.60
2019-02-09T03:24:00.887Z,80.60
2019-02-09T03:25:00.880Z,80.56
2019-02-09T03:26:00.875Z,79.26
2019-02-09T03:27:00.859Z,79.16
2019-02-09T03:28:00.883Z,79.43
2019-02-09T03:29:00.913Z,79.43
2019-02-09T03:30:00.830Z,79.02
2019-02-09T03:31:00.815Z,78.61
2019-02-09T03:32:00.798Z,78.20
2019-02-09T03:33:00.809Z,77.78
2019-02-09T03:34:00.784Z,77.99
2019-02-09T03:35:00.770Z,77.37
2019-02-09T03:36:00.785Z,77.58
2019-02-09T03:37:00.752Z,76.97
2019-02-09T03:38:00.769Z,76.97
2019-02-09T03:39:00.724Z,76.14
2019-02-09T03:40:00.712Z,76.25
2019-02-09T03:41:00.701Z,76.14
2019-02-09T03:42:00.691Z,75.42
2019-02-09T03:43:00.706Z,75.73
2019-02-09T03:44:00.668Z,76.25
2019-02-09T03:45:00.672Z,75.52
2019-02-09T03:46:00.661Z,75.63
2019-02-09T03:47:00.641Z,75.18
2019-02-09T03:48:00.659Z,74.80
2019-02-09T03:49:00.617Z,74.26
2019-02-09T03:50:00.609Z,74.46
2019-02-09T03:51:00.634Z,74.40
2019-02-09T03:52:00.586Z,73.78
2019-02-09T03:53:00.597Z,74.19
2019-02-09T03:54:00.564Z,73.78
2019-02-09T03:55:00.552Z,73.57
2019-02-09T03:56:00.547Z,73.78
2019-02-09T03:57:00.539Z,73.57
2019-02-09T03:58:00.522Z,73.57
2019-02-09T03:59:00.530Z,73.78
2019-02-09T04:00:00.498Z,73.68
2019-02-09T04:01:00.484Z,73.88
2019-02-09T04:02:00.484Z,73.88
2019-02-09T04:03:00.465Z,73.68
2019-02-09T04:04:00.483Z,72.78
2019-02-09T04:05:00.493Z,73.27
2019-02-09T04:06:00.454Z,73.36
2019-02-09T04:07:00.422Z,73.27
2019-02-09T04:08:00.433Z,73.06
2019-02-09T04:09:00.422Z,73.78
2019-02-09T04:10:00.398Z,73.68
2019-02-09T04:11:00.383Z,73.47
2019-02-09T04:12:00.368Z,73.27
2019-02-09T04:13:00.369Z,73.27
2019-02-09T04:14:00.347Z,74.08
2019-02-09T04:15:00.366Z,73.78
2019-02-09T04:16:00.325Z,73.98
2019-02-09T04:17:00.315Z,73.27
2019-02-09T04:18:00.303Z,73.68
2019-02-09T04:19:00.300Z,73.27
2019-02-09T04:20:00.338Z,73.88
2019-02-09T04:21:00.271Z,72.75
2019-02-09T04:22:00.264Z,72.85
2019-02-09T04:23:00.255Z,72.55
2019-02-09T04:24:00.244Z,73.06
2019-02-09T04:25:00.299Z,72.92
2019-02-09T04:26:00.217Z,73.27
2019-02-09T04:27:00.207Z,72.75
2019-02-09T04:28:00.201Z,73.33
2019-02-09T04:29:00.185Z,72.65
2019-02-09T04:30:00.190Z,72.41
2019-02-09T04:31:06.201Z,72.72
2019-02-09T04:32:01.159Z,72.72
2019-02-09T04:33:00.167Z,72.51
2019-02-09T04:34:00.132Z,72.92
2019-02-09T04:35:00.191Z,72.72
2019-02-09T04:36:00.111Z,72.61
2019-02-09T04:37:00.101Z,72.51
2019-02-09T04:38:00.087Z,72.38
2019-02-09T04:39:00.080Z,72.61
2019-02-09T04:40:00.247Z,72.31
2019-02-09T04:41:00.062Z,72.06
2019-02-09T04:42:00.045Z,72.06
2019-02-09T04:43:00.043Z,71.86
2019-02-09T04:44:00.020Z,71.66
2019-02-09T04:45:00.015Z,71.14
2019-02-09T04:46:00.018Z,71.25
2019-02-09T04:46:59.992Z,70.84
2019-02-09T04:47:59.977Z,71.04
2019-02-09T04:48:59.974Z,71.14
2019-02-09T04:49:59.968Z,71.04
2019-02-09T04:50:59.965Z,71.25
2019-02-09T04:51:59.932Z,71.04
2019-02-09T04:52:59.940Z,71.04
2019-02-09T04:53:59.918Z,71.45
2019-02-09T04:54:59.944Z,71.04
2019-02-09T04:55:59.911Z,71.04
2019-02-09T04:56:59.879Z,70.73
2019-02-09T04:57:59.880Z,71.55
2019-02-09T04:58:59.871Z,71.66
2019-02-09T04:59:59.850Z,71.66
2019-02-09T05:00:59.866Z,71.48
2019-02-09T05:01:59.832Z,71.79
2019-02-09T05:02:59.820Z,71.89
2019-02-09T05:03:59.821Z,71.79
2019-02-09T05:04:59.821Z,72.10
2019-02-09T05:05:59.801Z,72.20
2019-02-09T05:06:59.771Z,72.10
2019-02-09T05:07:59.793Z,72.31
2019-02-09T05:08:59.756Z,72.31
2019-02-09T05:09:59.740Z,72.55
2019-02-09T05:10:59.751Z,72.65
2019-02-09T05:11:59.722Z,72.41
2019-02-09T05:12:59.712Z,73.13
2019-02-09T05:13:59.718Z,72.55
2019-02-09T05:14:59.691Z,72.72
2019-02-09T05:15:59.700Z,73.06
2019-02-09T05:16:59.663Z,73.16
2019-02-09T05:17:59.651Z,73.27
2019-02-09T05:18:59.651Z,72.85
2019-02-09T05:19:59.632Z,72.65
2019-02-09T05:20:59.627Z,72.96
2019-02-09T05:21:59.627Z,72.85
2019-02-09T05:22:59.611Z,72.96
2019-02-09T05:23:59.609Z,72.58
2019-02-09T05:24:59.649Z,72.55
2019-02-09T05:25:59.566Z,72.24
2019-02-09T05:26:59.579Z,72.24
2019-02-09T05:27:59.557Z,72.13
2019-02-09T05:28:59.539Z,72.13
2019-02-09T05:29:59.528Z,72.13
2019-02-09T05:30:59.517Z,71.93
2019-02-09T05:31:59.524Z,72.34
2019-02-09T05:33:00.721Z,72.34
2019-02-09T05:33:59.538Z,72.44
2019-02-09T05:34:59.497Z,72.38
2019-02-09T05:35:59.462Z,72.38
2019-02-09T05:36:59.445Z,72.27
2019-02-09T05:37:59.459Z,72.65
2019-02-09T05:38:59.454Z,72.13
2019-02-09T05:39:59.411Z,72.24
2019-02-09T05:40:59.408Z,72.55
2019-02-09T05:41:59.393Z,72.68
2019-02-09T05:42:59.413Z,72.34
2019-02-09T05:43:59.368Z,72.55
2019-02-09T05:44:59.371Z,72.17
2019-02-09T05:45:59.352Z,72.06
2019-02-09T05:46:59.397Z,72.13
2019-02-09T05:47:59.347Z,72.85
2019-02-09T05:48:59.316Z,72.24
2019-02-09T05:50:00.023Z,72.03
2019-02-09T05:50:59.294Z,71.72
2019-02-09T05:51:59.324Z,71.72
2019-02-09T05:52:59.285Z,71.83
2019-02-09T05:53:59.275Z,72.24
2019-02-09T05:54:59.253Z,72.13
2019-02-09T05:55:59.242Z,72.17
2019-02-09T05:56:59.239Z,71.72
2019-02-09T05:57:59.237Z,72.47
2019-02-09T05:59:08.306Z,72.13
2019-02-09T06:01:44.894Z,72.24
2019-02-09T06:02:44.891Z,72.38
2019-02-09T06:03:44.867Z,71.75
2019-02-09T06:04:44.849Z,71.62
2019-02-09T06:05:44.844Z,71.83
2019-02-09T06:06:44.834Z,71.72
2019-02-09T06:07:44.842Z,71.72
2019-02-09T06:08:44.836Z,71.11
2019-02-09T06:09:44.831Z,71.31
2019-02-09T06:10:44.790Z,71.11
2019-02-09T06:11:44.782Z,71.21
2019-02-09T06:12:44.793Z,71.11
2019-02-09T06:13:44.757Z,71.31
2019-02-09T06:14:44.745Z,71.31
2019-02-09T06:15:44.746Z,71.31
2019-02-09T06:16:44.735Z,71.00
2019-02-09T06:17:44.735Z,70.79
2019-02-09T06:18:44.728Z,69.87
2019-02-09T06:19:44.698Z,70.08
2019-02-09T06:20:44.682Z,71.00
2019-02-09T06:21:44.673Z,70.59
2019-02-09T06:22:44.658Z,70.90
2019-02-09T06:23:44.681Z,70.79
2019-02-09T06:24:44.674Z,69.98
2019-02-09T06:25:44.651Z,70.79
2019-02-09T06:26:44.628Z,70.70
2019-02-09T06:27:44.631Z,70.59
2019-02-09T06:28:44.616Z,70.70
2019-02-09T06:29:44.612Z,70.76
2019-02-09T06:30:44.639Z,70.70
2019-02-09T06:31:44.593Z,70.76
2019-02-09T06:32:44.593Z,70.39
2019-02-09T06:33:44.560Z,69.77
2019-02-09T06:34:44.535Z,70.18
2019-02-09T06:35:44.546Z,70.18
2019-02-09T06:36:44.510Z,69.77
2019-02-09T06:37:44.502Z,69.77
2019-02-09T06:38:44.552Z,69.84
2019-02-09T06:39:44.473Z,69.74
2019-02-09T06:40:44.466Z,69.23
2019-02-09T06:41:44.456Z,68.85
2019-02-09T06:42:44.487Z,68.81
2019-02-09T06:43:44.439Z,68.91
2019-02-09T06:44:44.445Z,69.12
2019-02-09T06:45:44.416Z,68.19
2019-02-09T06:46:44.401Z,67.99
2019-02-09T06:47:44.399Z,67.79
2019-02-09T06:48:44.382Z,67.07
2019-02-09T06:49:44.436Z,66.76
2019-02-09T06:50:44.389Z,67.48
2019-02-09T06:51:51.905Z,66.86
2019-02-09T06:52:44.373Z,66.76
2019-02-09T06:53:44.328Z,66.76
2019-02-09T06:54:44.352Z,66.96
2019-02-09T06:55:44.311Z,66.04
2019-02-09T06:56:44.299Z,66.93
2019-02-09T06:57:44.327Z,66.66
2019-02-09T06:58:44.273Z,66.76
2019-02-09T06:59:44.313Z,66.14
2019-02-09T07:00:44.271Z,65.80
2019-02-09T07:01:48.873Z,66.22
2019-02-09T07:02:44.268Z,65.73
2019-02-09T07:03:44.251Z,66.52
2019-02-09T07:04:44.226Z,65.53
2019-02-09T07:05:44.220Z,65.53
2019-02-09T07:06:44.275Z,66.04
2019-02-09T07:07:44.228Z,65.53
2019-02-09T07:08:44.169Z,65.94
2019-02-09T07:09:44.169Z,66.14
2019-02-09T07:10:44.165Z,66.25
2019-02-09T07:11:44.150Z,65.53
2019-02-09T07:12:44.131Z,66.01
2019-02-09T07:13:44.116Z,66.45
2019-02-09T07:14:44.102Z,66.45
2019-02-09T07:15:44.136Z,65.53
2019-02-09T07:16:44.083Z,65.94
2019-02-09T07:17:44.080Z,65.22
2019-02-09T07:18:44.072Z,66.14
2019-02-09T07:19:44.056Z,66.14
2019-02-09T07:20:44.065Z,65.42
2019-02-09T07:21:44.054Z,65.94
2019-02-09T07:22:44.019Z,66.04
2019-02-09T07:23:44.006Z,65.63
2019-02-09T07:24:43.993Z,65.73
2019-02-09T07:25:44.014Z,65.53
2019-02-09T07:26:43.995Z,65.22
2019-02-09T07:27:44.014Z,65.01
2019-02-09T07:28:43.949Z,64.78
2019-02-09T07:29:43.946Z,64.81
2019-02-09T07:30:53.769Z,64.70
2019-02-09T07:31:56.320Z,64.81
2019-02-09T07:32:44.903Z,64.81
2019-02-09T07:33:43.900Z,64.47
2019-02-09T07:34:43.910Z,64.60
2019-02-09T07:35:43.962Z,64.19
2019-02-09T07:36:43.887Z,64.29
2019-02-09T07:37:43.888Z,64.26
2019-02-09T07:38:43.842Z,64.06
2019-02-09T07:39:43.831Z,63.96
2019-02-09T07:40:43.823Z,64.26
2019-02-09T07:41:43.831Z,64.06
2019-02-09T07:42:43.825Z,63.96
2019-02-09T07:43:43.791Z,64.26
2019-02-09T07:44:43.775Z,63.44
2019-02-09T07:45:43.766Z,63.54
2019-02-09T07:46:43.784Z,63.54
2019-02-09T07:47:43.751Z,63.03
2019-02-09T07:48:43.739Z,63.85
2019-02-09T07:49:43.739Z,63.44
2019-02-09T07:50:43.721Z,63.85
2019-02-09T07:51:43.726Z,63.44
2019-02-09T07:52:43.693Z,63.24
2019-02-09T07:53:43.683Z,63.24
2019-02-09T07:54:43.668Z,63.24
2019-02-09T07:55:43.707Z,63.93
2019-02-09T07:56:53.329Z,63.13
2019-02-09T07:57:43.633Z,63.44
2019-02-09T07:58:43.626Z,63.13
2019-02-09T07:59:51.163Z,63.24
2019-02-09T08:00:43.603Z,63.44
2019-02-09T08:01:43.591Z,63.62
2019-02-09T08:02:43.622Z,63.75
2019-02-09T08:03:43.599Z,63.82
2019-02-09T08:04:43.567Z,63.72
2019-02-09T08:05:43.557Z,63.62
2019-02-09T08:06:51.077Z,63.93
2019-02-09T08:07:53.430Z,63.72
2019-02-09T08:08:43.515Z,63.51
2019-02-09T08:09:52.064Z,63.51
2019-02-09T08:10:43.495Z,63.82
2019-02-09T08:11:52.050Z,63.51
2019-02-09T08:12:43.512Z,63.51
2019-02-09T08:13:51.207Z,63.31
2019-02-09T08:14:50.999Z,63.51
2019-02-09T08:15:52.002Z,63.42
2019-02-09T08:16:43.430Z,63.51
2019-02-09T08:17:52.152Z,62.70
2019-02-09T08:18:43.410Z,63.31
2019-02-09T08:19:43.398Z,63.21
2019-02-09T08:20:43.391Z,63.10
2019-02-09T08:23:02.421Z,63.07
2019-02-09T08:24:02.406Z,63.07
2019-02-09T08:25:02.395Z,62.80
2019-02-09T08:26:02.378Z,63.31
2019-02-09T08:27:02.374Z,62.39
2019-02-09T08:28:02.387Z,64.10
2019-02-09T08:29:02.374Z,62.98
2019-02-09T08:30:02.332Z,63.07
2019-02-09T08:31:02.363Z,62.59
2019-02-09T08:32:02.307Z,63.00
2019-02-09T08:33:02.306Z,62.87
2019-02-09T08:34:02.317Z,62.66
2019-02-09T08:35:02.406Z,62.80
2019-02-09T08:36:02.268Z,62.80
2019-02-09T08:37:02.255Z,62.59
2019-02-09T08:38:02.244Z,62.36
2019-02-09T08:39:02.253Z,62.49
2019-02-09T08:40:02.239Z,62.59
2019-02-09T08:41:10.773Z,62.59
2019-02-09T08:42:02.201Z,62.56
2019-02-09T08:43:02.191Z,62.36
2019-02-09T08:44:02.203Z,62.56
2019-02-09T08:45:02.184Z,62.56
2019-02-09T08:46:02.163Z,62.26
2019-02-09T08:47:02.156Z,62.05
2019-02-09T08:48:02.139Z,61.95
2019-02-09T08:49:02.156Z,62.66
2019-02-09T08:50:02.118Z,62.36
2019-02-09T08:51:02.117Z,62.36
2019-02-09T08:52:02.105Z,62.66
2019-02-09T08:53:02.110Z,62.26
2019-02-09T08:54:02.113Z,62.36
2019-02-09T08:55:09.642Z,62.26
2019-02-09T08:56:02.052Z,62.26
2019-02-09T08:57:11.867Z,61.85
2019-02-09T08:58:09.567Z,61.33
2019-02-09T08:59:02.036Z,61.23
2019-02-09T09:00:09.560Z,61.44
2019-02-09T09:02:20.177Z,60.58
2019-02-09T09:04:23.608Z,60.58
2019-02-09T09:05:23.593Z,60.58
2019-02-09T09:06:31.135Z,60.49
2019-02-09T09:07:23.563Z,60.69
2019-02-09T09:08:23.549Z,60.89
2019-02-09T09:09:23.555Z,60.89
2019-02-09T09:10:23.528Z,60.79
2019-02-09T09:11:31.055Z,60.69
2019-02-09T09:12:31.323Z,60.58
2019-02-09T09:13:32.352Z,61.30
2019-02-09T09:14:23.482Z,60.58
2019-02-09T09:15:32.893Z,60.86
2019-02-09T09:16:23.471Z,60.97
2019-02-09T09:17:23.475Z,60.76
2019-02-09T09:18:23.444Z,61.18
2019-02-09T09:19:32.442Z,61.27
2019-02-09T09:20:31.990Z,61.10
2019-02-09T09:21:32.249Z,60.66
2019-02-09T09:22:32.426Z,60.69
2019-02-09T09:23:30.994Z,60.76
2019-02-09T09:24:23.394Z,61.00
2019-02-09T09:25:23.367Z,60.28
2019-02-09T09:26:23.352Z,60.28
2019-02-09T09:27:23.349Z,60.17
2019-02-09T09:28:23.335Z,60.38
2019-02-09T09:29:23.367Z,60.38
2019-02-09T09:30:23.312Z,60.17
2019-02-09T09:31:30.853Z,60.69
2019-02-09T09:32:28.498Z,60.79
2019-02-09T09:33:24.275Z,60.49
2019-02-09T09:34:23.274Z,60.38
2019-02-09T09:35:23.283Z,60.25
2019-02-09T09:36:23.255Z,60.38
2019-02-09T09:37:23.234Z,60.15
2019-02-09T09:38:23.221Z,60.05
2019-02-09T09:39:23.219Z,60.46
2019-02-09T09:40:23.223Z,60.15
2019-02-09T09:41:23.244Z,59.94
2019-02-09T09:42:23.183Z,60.25
2019-02-09T09:43:23.190Z,60.46
2019-02-09T09:44:23.224Z,60.35
2019-02-09T09:45:23.184Z,59.94
2019-02-09T09:46:23.163Z,60.56
2019-02-09T09:47:23.121Z,60.07
2019-02-09T09:48:23.115Z,60.05
2019-02-09T09:49:23.101Z,60.49
2019-02-09T09:50:23.106Z,60.05
2019-02-09T09:51:23.095Z,60.25
2019-02-09T09:53:40.415Z,60.35
2019-02-09T09:54:40.402Z,60.97
2019-02-09T09:55:40.421Z,59.84
2019-02-09T09:56:40.431Z,60.05
2019-02-09T09:57:40.366Z,59.94
2019-02-09T09:58:40.357Z,59.33
2019-02-09T09:59:40.364Z,60.15
2019-02-09T10:00:40.366Z,59.92
2019-02-09T10:01:40.327Z,60.02
2019-02-09T10:02:40.331Z,58.89
2019-02-09T10:03:40.308Z,59.41
2019-02-09T10:04:40.296Z,59.00
2019-02-09T10:05:40.307Z,59.09
2019-02-09T10:06:40.275Z,58.89
2019-02-09T10:07:40.258Z,58.48
2019-02-09T10:08:40.248Z,58.58
2019-02-09T10:09:47.782Z,58.58
2019-02-09T10:10:40.232Z,58.79
2019-02-09T10:11:40.235Z,58.69
2019-02-09T10:12:40.204Z,59.00
2019-02-09T10:13:40.195Z,58.79
2019-02-09T10:14:40.184Z,59.00
2019-02-09T10:15:40.173Z,58.86
2019-02-09T10:16:40.195Z,58.07
2019-02-09T10:17:40.164Z,58.38
2019-02-09T10:18:40.134Z,58.58
2019-02-09T10:19:40.128Z,58.48
2019-02-09T10:20:40.117Z,58.07
2019-02-09T10:21:40.125Z,58.28
2019-02-09T10:22:40.110Z,58.79
2019-02-09T10:23:40.080Z,58.48
2019-02-09T10:24:40.072Z,58.38
2019-02-09T10:25:40.074Z,58.17
2019-02-09T10:26:40.078Z,58.35
2019-02-09T10:27:40.040Z,58.79
2019-02-09T10:28:40.033Z,58.58
2019-02-09T10:29:40.015Z,58.07
2019-02-09T10:30:40.007Z,58.69
2019-02-09T10:31:40.018Z,59.00
2019-02-09T10:32:44.583Z,58.48
2019-02-09T10:33:39.983Z,58.58
2019-02-09T10:34:39.963Z,59.00
2019-02-09T10:35:39.950Z,59.09
2019-02-09T10:36:39.958Z,59.17
2019-02-09T10:37:39.927Z,59.07
2019-02-09T10:38:39.935Z,59.07
2019-02-09T10:39:39.911Z,58.56
2019-02-09T10:40:39.893Z,58.86
2019-02-09T10:41:39.899Z,58.56
2019-02-09T10:42:39.886Z,58.56
2019-02-09T10:43:39.860Z,58.97
2019-02-09T10:44:39.854Z,58.76
2019-02-09T10:45:39.871Z,58.86
2019-02-09T10:46:39.858Z,58.86
2019-02-09T10:47:39.818Z,58.86
2019-02-09T10:48:39.804Z,58.25
2019-02-09T10:49:39.795Z,58.45
2019-02-09T10:50:39.792Z,58.02
2019-02-09T10:51:39.814Z,57.92
2019-02-09T10:52:39.780Z,58.43
2019-02-09T10:53:39.751Z,58.02
2019-02-09T10:54:39.741Z,58.22
2019-02-09T10:55:39.738Z,57.30
2019-02-09T10:56:39.724Z,56.82
2019-02-09T10:57:39.732Z,57.84
2019-02-09T10:58:39.719Z,57.20
2019-02-09T10:59:39.692Z,56.71
2019-02-09T11:00:39.682Z,56.69
2019-02-09T11:01:39.682Z,57.71
2019-02-09T11:02:39.674Z,57.51
2019-02-09T11:03:39.728Z,56.79
2019-02-09T11:04:39.632Z,56.79
2019-02-09T11:05:39.628Z,56.38
2019-02-09T11:06:39.625Z,56.69
2019-02-09T11:07:39.643Z,56.38
2019-02-09T11:08:39.614Z,56.59
2019-02-09T11:09:39.577Z,56.69
2019-02-09T11:10:39.568Z,56.38
2019-02-09T11:11:39.588Z,56.05
2019-02-09T11:12:39.550Z,56.46
2019-02-09T11:13:39.554Z,56.46
2019-02-09T11:14:39.523Z,55.84
2019-02-09T11:15:39.517Z,55.64
2019-02-09T11:16:39.515Z,55.13
2019-02-09T11:17:39.492Z,55.74
2019-02-09T11:18:39.525Z,55.23
2019-02-09T11:19:39.486Z,55.13
2019-02-09T11:20:39.476Z,55.33
2019-02-09T11:21:39.446Z,55.23
2019-02-09T11:22:39.444Z,55.54
2019-02-09T11:23:39.445Z,54.72
2019-02-09T11:24:39.440Z,54.82
2019-02-09T11:25:39.418Z,54.31
2019-02-09T11:26:39.436Z,54.72
2019-02-09T11:27:39.392Z,54.82
2019-02-09T11:28:39.399Z,54.90
2019-02-09T11:29:39.405Z,54.61
2019-02-09T11:30:39.364Z,54.08
2019-02-09T11:31:39.385Z,54.10
2019-02-09T11:32:39.325Z,54.39
2019-02-09T11:33:39.375Z,54.41
2019-02-09T11:34:39.330Z,54.61
2019-02-09T11:35:39.358Z,54.59
2019-02-09T11:36:39.311Z,54.72
2019-02-09T11:37:39.306Z,56.84
2019-02-09T11:38:39.303Z,56.40
2019-02-09T11:39:39.262Z,55.41
2019-02-09T11:40:39.245Z,56.61
2019-02-09T11:41:39.235Z,55.08
2019-02-09T11:42:39.232Z,54.57
2019-02-09T11:43:39.260Z,55.58
2019-02-09T11:44:41.146Z,54.95
2019-02-09T11:45:39.195Z,54.23
2019-02-09T11:46:39.275Z,54.54
2019-02-09T11:47:39.180Z,54.97
2019-02-09T11:48:39.203Z,54.87
2019-02-09T11:49:39.208Z,54.57
2019-02-09T11:50:39.134Z,54.87
2019-02-09T11:51:39.122Z,55.30
2019-02-09T11:52:40.001Z,55.49
2019-02-09T11:53:39.122Z,55.62
2019-02-09T11:54:39.150Z,55.82
2019-02-09T11:55:39.081Z,55.51
2019-02-09T11:56:39.071Z,55.71
2019-02-09T11:57:39.069Z,56.15
2019-02-09T11:58:39.073Z,56.15
2019-02-09T11:59:39.081Z,56.66
2019-02-09T12:00:39.025Z,56.87
2019-02-09T12:01:39.012Z,56.66
2019-02-09T12:02:39.006Z,56.87
2019-02-09T12:03:39.015Z,56.76
2019-02-09T12:04:39.002Z,56.76
2019-02-09T12:05:38.974Z,56.89
2019-02-09T12:06:38.997Z,57.68
2019-02-09T12:07:38.946Z,56.76
2019-02-09T12:08:38.954Z,56.69
2019-02-09T12:09:38.943Z,57.71
2019-02-09T12:10:38.924Z,57.71
2019-02-09T12:11:38.937Z,57.92
2019-02-09T12:12:38.892Z,58.22
2019-02-09T12:13:38.949Z,57.71
2019-02-09T12:14:38.874Z,57.51
2019-02-09T12:15:38.869Z,57.68
2019-02-09T12:16:38.982Z,57.81
2019-02-09T12:17:38.852Z,58.20
2019-02-09T12:18:38.918Z,57.99
2019-02-09T12:19:38.828Z,58.20
2019-02-09T12:20:38.814Z,58.12
2019-02-09T12:21:38.798Z,57.79
2019-02-09T12:22:38.782Z,58.29
2019-02-09T12:23:38.799Z,58.20
2019-02-09T12:24:38.785Z,57.76
2019-02-09T12:25:38.760Z,57.66
2019-02-09T12:26:38.740Z,56.71
2019-02-09T12:27:38.730Z,56.81
2019-02-09T12:28:38.729Z,56.71
2019-02-09T12:29:38.741Z,56.84
2019-02-09T12:31:59.093Z,56.51
2019-02-09T12:34:08.280Z,55.69
2019-02-09T12:36:17.503Z,55.66
2019-02-09T12:38:26.718Z,54.85
2019-02-09T12:39:26.701Z,54.33
2019-02-09T12:40:26.803Z,55.36
2019-02-09T12:41:26.666Z,55.15
2019-02-09T12:42:26.658Z,54.74
2019-02-09T12:43:26.656Z,54.95
2019-02-09T12:44:26.655Z,54.23
2019-02-09T12:45:26.661Z,54.77
2019-02-09T12:46:26.641Z,54.67
2019-02-09T12:47:26.634Z,54.77
2019-02-09T12:48:35.417Z,54.49
2019-02-09T12:49:26.599Z,54.77
2019-02-09T12:50:26.578Z,55.28
2019-02-09T12:51:26.601Z,54.67
2019-02-09T12:52:26.553Z,54.77
2019-02-09T12:53:26.548Z,54.44
2019-02-09T12:54:26.546Z,53.72
2019-02-09T12:55:26.651Z,53.42
2019-02-09T12:56:26.681Z,52.80
2019-02-09T12:57:26.501Z,53.01
2019-02-09T12:58:26.489Z,52.67
2019-02-09T12:59:26.479Z,52.88
2019-02-09T13:00:26.469Z,53.08
2019-02-09T13:01:26.476Z,52.06
2019-02-09T13:02:26.452Z,52.27
2019-02-09T13:03:31.345Z,52.14